Terminal Aerodrome Forecast
Issued by NWS

Home | Current Version | Previous Version | Text Only | Print | Product List | Glossary On
Versions: 1 2 3 4 5 6 7 8 9 10 11 12 13 14 15 16 17 18 19
000
FTUS42 KGSP 212340
TAFGMU
TAF
KGMU 212340Z 2200/2224 06006KT P6SM OVC028
     FM220400 05007KT 6SM -RA OVC016
     FM220800 04009KT 6SM -RA OVC007
     FM221500 05009KT P6SM OVC006=

USA.gov is the U.S. government's official web portal to all federal, state and local government web resources and services.